Etusivu
METAR-TAF:

METAR-TAF

Lentoasemat :

Kemi, Suomi

Kemi-Tornion lentoasema

Leveyspiiri: 65-47N, Pituuspiiri: 024-35E, korkeus merenpinnasta: 15 m

Tämänhetkinen sää

Tämä raportti tehtiin 34 minuuttia sitten, kello 23.50 UTC
Tuuli 6 kn pohjoisesta/koillisesta
Lämpötila -4°C
Kosteus 93%
Ilmanpaine 1005 hPa
Näkyvyys: 4000 m
Pilvistä 1500 ft:n korkeudessa
heikkoa lumisadetta

METAR: EFKE 192350Z AUTO 02006KT 4000 -SN OVC015 M04/M05 Q1005

Aika: 02:24 (00:24 UTC)

Sääennuste

Tämä raportti tehtiin 4 tuntia ja 0 minuuttia sitten, kello 20.24 UTC
Ennuste voimassa 19. päivästä klo 21 UTC - 19. päivään klo 24 UTC
Tuuli 8 kn pohjoisesta/koillisesta
Näkyvyys: 4000 m
Hajanaisia pilviä 800 ft:n korkeudessa
Hajonneita pilviä 2000 ft:n korkeudessa
heikkoa lumisadetta
Ajoittain
19. päivästä klo 21 UTC - 19. päivään klo 24 UTC
Näkyvyys: 1300 m
700 ft:n korkeudessa
lumisadetta

TAF: EFKE 192024Z 1921/1924 02008KT 4000 -SN SCT008 BKN020 TEMPO 1921/1924 1300 SN VV007

Säähavainnot ja -ennusteet yli 4000 lentoasemalta (METAR- ja TAF-raportit).

Käytössä olevat sääasemat on merkitty karttaan keltaisilla ja punaisilla pisteillä.

Aseta hiiri pisteen päälle nähdäksesi sääaseman nimen.

Klikkaa sitten nähdäksesi säähavainnot ja -ennusteet.

Kartan vaihtaminen: klikkaa mustalla rastilla varustettuja vihreitä pisteitä, niin voit zoomata sisään; viivalla varustettua vihreää pistettä, niin voit zoomata ulos tai vihreitä nuolia, niin pääset viereisille kartoille.


METAR-TAF: